sensor_id;sensor_type;location;lat;lon;timestamp;P1;durP1;ratioP1;P2;durP2;ratioP2
71148;SDS011;59072;42.144;25.200;2022-09-17T00:00:40;11.68;;;5.85;;
71148;SDS011;59072;42.144;25.200;2022-09-17T00:03:06;11.68;;;5.28;;
71148;SDS011;59072;42.144;25.200;2022-09-17T00:05:34;11.13;;;4.97;;
71148;SDS011;59072;42.144;25.200;2022-09-17T00:10:27;9.18;;;4.68;;
71148;SDS011;59072;42.144;25.200;2022-09-17T00:12:52;10.93;;;4.85;;
71148;SDS011;59072;42.144;25.200;2022-09-17T00:15:18;11.38;;;4.97;;
71148;SDS011;59072;42.144;25.200;2022-09-17T00:17:43;8.70;;;4.20;;
71148;SDS011;59072;42.144;25.200;2022-09-17T00:20:09;8.32;;;4.40;;
71148;SDS011;59072;42.144;25.200;2022-09-17T00:22:35;10.90;;;4.53;;
71148;SDS011;59072;42.144;25.200;2022-09-17T00:25:02;9.15;;;4.13;;
71148;SDS011;59072;42.144;25.200;2022-09-17T00:27:29;12.40;;;4.60;;
71148;SDS011;59072;42.144;25.200;2022-09-17T00:29:54;10.73;;;4.70;;
71148;SDS011;59072;42.144;25.200;2022-09-17T00:32:20;9.52;;;3.90;;
71148;SDS011;59072;42.144;25.200;2022-09-17T00:34:46;8.07;;;3.85;;
71148;SDS011;59072;42.144;25.200;2022-09-17T00:37:13;8.60;;;3.90;;
71148;SDS011;59072;42.144;25.200;2022-09-17T00:39:38;8.30;;;4.30;;
71148;SDS011;59072;42.144;25.200;2022-09-17T00:42:04;13.27;;;4.60;;
71148;SDS011;59072;42.144;25.200;2022-09-17T00:47:21;10.15;;;4.10;;
71148;SDS011;59072;42.144;25.200;2022-09-17T00:50:16;10.43;;;4.35;;
71148;SDS011;59072;42.144;25.200;2022-09-17T00:52:58;10.25;;;4.15;;
71148;SDS011;59072;42.144;25.200;2022-09-17T00:55:32;8.35;;;4.20;;
71148;SDS011;59072;42.144;25.200;2022-09-17T00:58:01;13.18;;;4.38;;
71148;SDS011;59072;42.144;25.200;2022-09-17T01:00:29;9.13;;;4.35;;
71148;SDS011;59072;42.144;25.200;2022-09-17T01:02:55;7.95;;;3.88;;
71148;SDS011;59072;42.144;25.200;2022-09-17T01:06:07;6.25;;;3.75;;
71148;SDS011;59072;42.144;25.200;2022-09-17T01:11:00;11.13;;;5.70;;
71148;SDS011;59072;42.144;25.200;2022-09-17T01:22:15;9.55;;;4.32;;
71148;SDS011;59072;42.144;25.200;2022-09-17T01:25:08;8.68;;;4.07;;
71148;SDS011;59072;42.144;25.200;2022-09-17T01:28:08;8.55;;;4.68;;
71148;SDS011;59072;42.144;25.200;2022-09-17T01:30:29;11.15;;;4.60;;
71148;SDS011;59072;42.144;25.200;2022-09-17T01:33:18;11.98;;;4.20;;
71148;SDS011;59072;42.144;25.200;2022-09-17T01:38:50;10.38;;;4.32;;
71148;SDS011;59072;42.144;25.200;2022-09-17T01:44:17;10.38;;;4.00;;
71148;SDS011;59072;42.144;25.200;2022-09-17T01:46:54;10.48;;;5.03;;
71148;SDS011;59072;42.144;25.200;2022-09-17T01:49:32;9.50;;;5.07;;
71148;SDS011;59072;42.144;25.200;2022-09-17T01:52:01;10.32;;;4.60;;
71148;SDS011;59072;42.144;25.200;2022-09-17T01:54:39;8.65;;;5.07;;
71148;SDS011;59072;42.144;25.200;2022-09-17T02:02:30;10.93;;;4.95;;
71148;SDS011;59072;42.144;25.200;2022-09-17T02:07:38;8.48;;;4.95;;
71148;SDS011;59072;42.144;25.200;2022-09-17T02:10:10;11.13;;;5.90;;
71148;SDS011;59072;42.144;25.200;2022-09-17T02:12:45;12.35;;;5.15;;
71148;SDS011;59072;42.144;25.200;2022-09-17T02:15:21;13.25;;;5.32;;
71148;SDS011;59072;42.144;25.200;2022-09-17T02:17:53;10.70;;;5.20;;
71148;SDS011;59072;42.144;25.200;2022-09-17T02:20:23;9.75;;;4.65;;
71148;SDS011;59072;42.144;25.200;2022-09-17T02:22:58;10.38;;;4.78;;
71148;SDS011;59072;42.144;25.200;2022-09-17T02:25:54;7.82;;;4.93;;
71148;SDS011;59072;42.144;25.200;2022-09-17T02:28:23;12.32;;;4.95;;
71148;SDS011;59072;42.144;25.200;2022-09-17T02:30:56;10.85;;;4.93;;
71148;SDS011;59072;42.144;25.200;2022-09-17T02:33:22;9.60;;;5.00;;
71148;SDS011;59072;42.144;25.200;2022-09-17T02:35:48;10.85;;;5.18;;
71148;SDS011;59072;42.144;25.200;2022-09-17T02:38:20;9.85;;;5.25;;
71148;SDS011;59072;42.144;25.200;2022-09-17T02:40:49;8.55;;;5.13;;
71148;SDS011;59072;42.144;25.200;2022-09-17T02:43:40;11.85;;;5.00;;
71148;SDS011;59072;42.144;25.200;2022-09-17T02:46:34;11.90;;;6.05;;
71148;SDS011;59072;42.144;25.200;2022-09-17T02:49:42;12.98;;;5.97;;
71148;SDS011;59072;42.144;25.200;2022-09-17T02:55:31;9.57;;;5.90;;
71148;SDS011;59072;42.144;25.200;2022-09-17T03:00:33;10.70;;;5.38;;
71148;SDS011;59072;42.144;25.200;2022-09-17T03:03:05;11.57;;;5.40;;
71148;SDS011;59072;42.144;25.200;2022-09-17T03:05:35;10.88;;;5.50;;
71148;SDS011;59072;42.144;25.200;2022-09-17T03:10:31;8.38;;;5.55;;
71148;SDS011;59072;42.144;25.200;2022-09-17T03:12:57;11.23;;;5.13;;
71148;SDS011;59072;42.144;25.200;2022-09-17T03:15:23;12.25;;;6.05;;
71148;SDS011;59072;42.144;25.200;2022-09-17T03:17:49;13.77;;;6.93;;
71148;SDS011;59072;42.144;25.200;2022-09-17T03:20:14;12.68;;;6.15;;
71148;SDS011;59072;42.144;25.200;2022-09-17T03:22:40;12.48;;;6.22;;
71148;SDS011;59072;42.144;25.200;2022-09-17T03:25:06;10.82;;;6.03;;
71148;SDS011;59072;42.144;25.200;2022-09-17T03:27:32;10.73;;;6.30;;
71148;SDS011;59072;42.144;25.200;2022-09-17T03:29:57;13.80;;;6.50;;
71148;SDS011;59072;42.144;25.200;2022-09-17T03:32:23;12.18;;;6.38;;
71148;SDS011;59072;42.144;25.200;2022-09-17T03:34:49;17.00;;;6.43;;
71148;SDS011;59072;42.144;25.200;2022-09-17T03:37:14;12.90;;;6.22;;
71148;SDS011;59072;42.144;25.200;2022-09-17T03:39:40;15.10;;;6.10;;
71148;SDS011;59072;42.144;25.200;2022-09-17T03:42:05;12.07;;;5.82;;
71148;SDS011;59072;42.144;25.200;2022-09-17T03:44:31;10.15;;;6.20;;
71148;SDS011;59072;42.144;25.200;2022-09-17T03:46:56;9.45;;;5.35;;
71148;SDS011;59072;42.144;25.200;2022-09-17T03:49:21;13.25;;;5.50;;
71148;SDS011;59072;42.144;25.200;2022-09-17T03:51:48;10.85;;;5.88;;
71148;SDS011;59072;42.144;25.200;2022-09-17T03:54:13;12.68;;;5.07;;
71148;SDS011;59072;42.144;25.200;2022-09-17T03:56:39;13.93;;;5.22;;
71148;SDS011;59072;42.144;25.200;2022-09-17T03:59:04;10.82;;;5.35;;
71148;SDS011;59072;42.144;25.200;2022-09-17T04:01:30;11.82;;;5.63;;
71148;SDS011;59072;42.144;25.200;2022-09-17T04:03:55;12.60;;;5.53;;
71148;SDS011;59072;42.144;25.200;2022-09-17T04:06:21;15.45;;;5.47;;
71148;SDS011;59072;42.144;25.200;2022-09-17T04:08:46;12.75;;;5.47;;
71148;SDS011;59072;42.144;25.200;2022-09-17T04:11:12;8.68;;;4.72;;
71148;SDS011;59072;42.144;25.200;2022-09-17T04:13:37;10.52;;;5.07;;
71148;SDS011;59072;42.144;25.200;2022-09-17T04:16:03;9.30;;;5.35;;
71148;SDS011;59072;42.144;25.200;2022-09-17T04:18:29;10.95;;;5.28;;
71148;SDS011;59072;42.144;25.200;2022-09-17T04:20:55;13.80;;;5.72;;
71148;SDS011;59072;42.144;25.200;2022-09-17T04:23:20;14.95;;;5.90;;
71148;SDS011;59072;42.144;25.200;2022-09-17T04:25:46;9.40;;;5.53;;
71148;SDS011;59072;42.144;25.200;2022-09-17T04:28:11;14.63;;;5.28;;
71148;SDS011;59072;42.144;25.200;2022-09-17T04:30:37;11.00;;;4.90;;
71148;SDS011;59072;42.144;25.200;2022-09-17T04:33:03;9.05;;;5.28;;
71148;SDS011;59072;42.144;25.200;2022-09-17T04:35:29;14.48;;;5.80;;
71148;SDS011;59072;42.144;25.200;2022-09-17T04:37:55;10.48;;;6.10;;
71148;SDS011;59072;42.144;25.200;2022-09-17T04:40:22;12.77;;;5.05;;
71148;SDS011;59072;42.144;25.200;2022-09-17T04:42:56;16.63;;;5.15;;
71148;SDS011;59072;42.144;25.200;2022-09-17T04:45:27;12.60;;;5.82;;
71148;SDS011;59072;42.144;25.200;2022-09-17T04:47:54;13.82;;;5.32;;
71148;SDS011;59072;42.144;25.200;2022-09-17T04:50:20;14.32;;;5.20;;
71148;SDS011;59072;42.144;25.200;2022-09-17T04:52:46;12.23;;;4.60;;
71148;SDS011;59072;42.144;25.200;2022-09-17T04:55:12;14.25;;;4.60;;
71148;SDS011;59072;42.144;25.200;2022-09-17T04:57:44;11.80;;;4.80;;
71148;SDS011;59072;42.144;25.200;2022-09-17T05:00:11;11.20;;;4.88;;
71148;SDS011;59072;42.144;25.200;2022-09-17T05:02:37;14.10;;;5.22;;
71148;SDS011;59072;42.144;25.200;2022-09-17T05:05:02;12.95;;;4.45;;
71148;SDS011;59072;42.144;25.200;2022-09-17T05:07:28;15.75;;;5.60;;
71148;SDS011;59072;42.144;25.200;2022-09-17T05:09:53;11.35;;;4.97;;
71148;SDS011;59072;42.144;25.200;2022-09-17T05:12:19;10.95;;;5.25;;
71148;SDS011;59072;42.144;25.200;2022-09-17T05:14:44;16.40;;;5.78;;
71148;SDS011;59072;42.144;25.200;2022-09-17T05:17:10;12.70;;;4.85;;
71148;SDS011;59072;42.144;25.200;2022-09-17T05:19:35;13.05;;;4.32;;
71148;SDS011;59072;42.144;25.200;2022-09-17T05:22:01;12.50;;;4.65;;
71148;SDS011;59072;42.144;25.200;2022-09-17T05:24:27;17.42;;;5.28;;
71148;SDS011;59072;42.144;25.200;2022-09-17T05:26:52;12.88;;;3.90;;
71148;SDS011;59072;42.144;25.200;2022-09-17T05:29:17;13.30;;;3.58;;
71148;SDS011;59072;42.144;25.200;2022-09-17T05:31:43;13.55;;;3.67;;
71148;SDS011;59072;42.144;25.200;2022-09-17T05:34:08;10.68;;;3.35;;
71148;SDS011;59072;42.144;25.200;2022-09-17T05:36:34;10.35;;;4.63;;
71148;SDS011;59072;42.144;25.200;2022-09-17T05:38:59;11.85;;;4.40;;
71148;SDS011;59072;42.144;25.200;2022-09-17T05:41:24;9.77;;;5.07;;
71148;SDS011;59072;42.144;25.200;2022-09-17T05:43:50;12.43;;;5.00;;
71148;SDS011;59072;42.144;25.200;2022-09-17T05:46:15;13.30;;;5.22;;
71148;SDS011;59072;42.144;25.200;2022-09-17T05:48:41;15.57;;;5.53;;
71148;SDS011;59072;42.144;25.200;2022-09-17T05:51:07;13.90;;;5.03;;
71148;SDS011;59072;42.144;25.200;2022-09-17T05:53:33;10.27;;;4.13;;
71148;SDS011;59072;42.144;25.200;2022-09-17T05:55:58;11.55;;;4.40;;
71148;SDS011;59072;42.144;25.200;2022-09-17T05:58:24;11.38;;;4.32;;
71148;SDS011;59072;42.144;25.200;2022-09-17T06:00:49;12.27;;;4.63;;
71148;SDS011;59072;42.144;25.200;2022-09-17T06:03:16;13.73;;;6.32;;
71148;SDS011;59072;42.144;25.200;2022-09-17T06:05:43;12.40;;;4.60;;
71148;SDS011;59072;42.144;25.200;2022-09-17T06:08:18;15.40;;;4.65;;
71148;SDS011;59072;42.144;25.200;2022-09-17T06:10:43;12.60;;;4.28;;
71148;SDS011;59072;42.144;25.200;2022-09-17T06:13:08;11.10;;;4.60;;
71148;SDS011;59072;42.144;25.200;2022-09-17T06:15:34;13.35;;;4.68;;
71148;SDS011;59072;42.144;25.200;2022-09-17T06:17:59;9.73;;;4.50;;
71148;SDS011;59072;42.144;25.200;2022-09-17T06:20:25;12.35;;;4.40;;
71148;SDS011;59072;42.144;25.200;2022-09-17T06:22:57;12.13;;;4.10;;
71148;SDS011;59072;42.144;25.200;2022-09-17T06:25:23;12.07;;;4.20;;
71148;SDS011;59072;42.144;25.200;2022-09-17T06:27:49;8.68;;;3.75;;
71148;SDS011;59072;42.144;25.200;2022-09-17T06:30:15;9.15;;;4.00;;
71148;SDS011;59072;42.144;25.200;2022-09-17T06:32:40;13.77;;;4.47;;
71148;SDS011;59072;42.144;25.200;2022-09-17T06:35:06;10.82;;;3.80;;
71148;SDS011;59072;42.144;25.200;2022-09-17T06:37:32;9.95;;;4.30;;
71148;SDS011;59072;42.144;25.200;2022-09-17T06:39:59;13.25;;;3.42;;
71148;SDS011;59072;42.144;25.200;2022-09-17T06:42:25;12.48;;;4.65;;
71148;SDS011;59072;42.144;25.200;2022-09-17T06:44:52;11.40;;;4.68;;
71148;SDS011;59072;42.144;25.200;2022-09-17T06:47:17;9.60;;;3.90;;
71148;SDS011;59072;42.144;25.200;2022-09-17T06:49:43;12.63;;;4.00;;
71148;SDS011;59072;42.144;25.200;2022-09-17T06:52:09;12.60;;;3.90;;
71148;SDS011;59072;42.144;25.200;2022-09-17T06:54:34;13.00;;;4.43;;
71148;SDS011;59072;42.144;25.200;2022-09-17T06:57:00;20.90;;;10.43;;
71148;SDS011;59072;42.144;25.200;2022-09-17T06:59:25;12.27;;;5.18;;
71148;SDS011;59072;42.144;25.200;2022-09-17T07:01:52;21.25;;;12.82;;
71148;SDS011;59072;42.144;25.200;2022-09-17T07:04:17;20.00;;;11.77;;
71148;SDS011;59072;42.144;25.200;2022-09-17T07:06:43;12.55;;;5.53;;
71148;SDS011;59072;42.144;25.200;2022-09-17T07:09:09;12.98;;;4.65;;
71148;SDS011;59072;42.144;25.200;2022-09-17T07:11:35;14.20;;;4.32;;
71148;SDS011;59072;42.144;25.200;2022-09-17T07:14:01;13.63;;;4.43;;
71148;SDS011;59072;42.144;25.200;2022-09-17T07:16:28;10.77;;;4.18;;
71148;SDS011;59072;42.144;25.200;2022-09-17T07:18:57;13.27;;;4.30;;
71148;SDS011;59072;42.144;25.200;2022-09-17T07:21:22;10.25;;;4.20;;
71148;SDS011;59072;42.144;25.200;2022-09-17T07:23:49;14.45;;;5.20;;
71148;SDS011;59072;42.144;25.200;2022-09-17T07:26:15;8.80;;;4.43;;
71148;SDS011;59072;42.144;25.200;2022-09-17T07:28:41;11.38;;;4.85;;
71148;SDS011;59072;42.144;25.200;2022-09-17T07:31:11;13.13;;;4.80;;
71148;SDS011;59072;42.144;25.200;2022-09-17T07:33:37;12.98;;;4.53;;
71148;SDS011;59072;42.144;25.200;2022-09-17T07:36:07;10.80;;;4.55;;
71148;SDS011;59072;42.144;25.200;2022-09-17T07:38:35;12.25;;;5.20;;
71148;SDS011;59072;42.144;25.200;2022-09-17T07:41:02;11.68;;;4.72;;
71148;SDS011;59072;42.144;25.200;2022-09-17T07:43:30;15.15;;;4.90;;
71148;SDS011;59072;42.144;25.200;2022-09-17T07:48:24;11.82;;;4.75;;
71148;SDS011;59072;42.144;25.200;2022-09-17T07:50:50;16.25;;;5.82;;
71148;SDS011;59072;42.144;25.200;2022-09-17T07:53:15;14.70;;;5.60;;
71148;SDS011;59072;42.144;25.200;2022-09-17T07:55:41;12.95;;;5.07;;
71148;SDS011;59072;42.144;25.200;2022-09-17T07:58:07;15.27;;;4.90;;
71148;SDS011;59072;42.144;25.200;2022-09-17T08:00:33;10.13;;;4.70;;
71148;SDS011;59072;42.144;25.200;2022-09-17T08:02:58;11.25;;;4.97;;
71148;SDS011;59072;42.144;25.200;2022-09-17T08:05:24;12.40;;;5.15;;
71148;SDS011;59072;42.144;25.200;2022-09-17T08:07:50;14.35;;;5.30;;
71148;SDS011;59072;42.144;25.200;2022-09-17T08:10:17;14.50;;;6.07;;
71148;SDS011;59072;42.144;25.200;2022-09-17T08:12:49;11.82;;;5.57;;
71148;SDS011;59072;42.144;25.200;2022-09-17T08:15:17;12.82;;;5.30;;
71148;SDS011;59072;42.144;25.200;2022-09-17T08:17:44;10.88;;;5.10;;
71148;SDS011;59072;42.144;25.200;2022-09-17T08:20:10;12.57;;;5.90;;
71148;SDS011;59072;42.144;25.200;2022-09-17T08:22:37;11.93;;;5.93;;
71148;SDS011;59072;42.144;25.200;2022-09-17T08:25:03;10.45;;;4.80;;
71148;SDS011;59072;42.144;25.200;2022-09-17T08:27:30;10.68;;;5.75;;
71148;SDS011;59072;42.144;25.200;2022-09-17T08:29:56;10.77;;;5.20;;
71148;SDS011;59072;42.144;25.200;2022-09-17T08:32:22;14.00;;;4.53;;
71148;SDS011;59072;42.144;25.200;2022-09-17T08:34:48;14.80;;;5.30;;
71148;SDS011;59072;42.144;25.200;2022-09-17T08:37:13;9.80;;;4.45;;
71148;SDS011;59072;42.144;25.200;2022-09-17T08:39:38;13.05;;;5.45;;
71148;SDS011;59072;42.144;25.200;2022-09-17T08:42:26;12.45;;;5.25;;
71148;SDS011;59072;42.144;25.200;2022-09-17T08:45:13;10.00;;;4.40;;
71148;SDS011;59072;42.144;25.200;2022-09-17T08:50:14;12.85;;;4.97;;
71148;SDS011;59072;42.144;25.200;2022-09-17T08:56:01;12.30;;;4.30;;
71148;SDS011;59072;42.144;25.200;2022-09-17T09:07:23;9.15;;;4.03;;
71148;SDS011;59072;42.144;25.200;2022-09-17T09:12:29;10.05;;;3.80;;
71148;SDS011;59072;42.144;25.200;2022-09-17T09:15:42;8.95;;;4.25;;
71148;SDS011;59072;42.144;25.200;2022-09-17T09:17:58;11.45;;;3.80;;
71148;SDS011;59072;42.144;25.200;2022-09-17T09:26:18;9.07;;;3.67;;
71148;SDS011;59072;42.144;25.200;2022-09-17T09:34:39;11.18;;;3.40;;
71148;SDS011;59072;42.144;25.200;2022-09-17T09:37:13;11.95;;;3.47;;
71148;SDS011;59072;42.144;25.200;2022-09-17T09:39:41;7.97;;;3.50;;
71148;SDS011;59072;42.144;25.200;2022-09-17T09:44:47;10.77;;;3.45;;
71148;SDS011;59072;42.144;25.200;2022-09-17T09:57:52;9.93;;;4.43;;
71148;SDS011;59072;42.144;25.200;2022-09-17T10:03:09;22.50;;;3.35;;
71148;SDS011;59072;42.144;25.200;2022-09-17T10:05:37;9.40;;;3.28;;
71148;SDS011;59072;42.144;25.200;2022-09-17T10:08:12;14.23;;;3.95;;
71148;SDS011;59072;42.144;25.200;2022-09-17T10:13:32;14.40;;;3.80;;
71148;SDS011;59072;42.144;25.200;2022-09-17T10:16:14;7.53;;;3.40;;
71148;SDS011;59072;42.144;25.200;2022-09-17T10:18:40;13.60;;;3.70;;
71148;SDS011;59072;42.144;25.200;2022-09-17T10:21:07;16.13;;;3.90;;
71148;SDS011;59072;42.144;25.200;2022-09-17T10:24:04;10.13;;;3.90;;
71148;SDS011;59072;42.144;25.200;2022-09-17T10:26:45;10.30;;;4.05;;
71148;SDS011;59072;42.144;25.200;2022-09-17T10:29:12;14.60;;;3.95;;
71148;SDS011;59072;42.144;25.200;2022-09-17T10:31:56;12.88;;;4.10;;
71148;SDS011;59072;42.144;25.200;2022-09-17T10:34:26;10.05;;;3.40;;
71148;SDS011;59072;42.144;25.200;2022-09-17T10:36:53;10.15;;;3.33;;
71148;SDS011;59072;42.144;25.200;2022-09-17T10:41:55;11.88;;;4.70;;
71148;SDS011;59072;42.144;25.200;2022-09-17T10:44:58;12.20;;;3.53;;
71148;SDS011;59072;42.144;25.200;2022-09-17T10:47:29;7.80;;;3.15;;
71148;SDS011;59072;42.144;25.200;2022-09-17T10:52:52;9.15;;;2.90;;
71148;SDS011;59072;42.144;25.200;2022-09-17T10:55:36;14.27;;;3.60;;
71148;SDS011;59072;42.144;25.200;2022-09-17T11:06:49;12.63;;;3.72;;
71148;SDS011;59072;42.144;25.200;2022-09-17T11:31:33;10.93;;;6.57;;
71148;SDS011;59072;42.144;25.200;2022-09-17T11:39:22;7.85;;;2.70;;
71148;SDS011;59072;42.144;25.200;2022-09-17T11:42:06;7.68;;;3.33;;
71148;SDS011;59072;42.144;25.200;2022-09-17T11:44:46;11.63;;;3.67;;
71148;SDS011;59072;42.144;25.200;2022-09-17T11:47:39;11.93;;;3.55;;
71148;SDS011;59072;42.144;25.200;2022-09-17T11:55:51;13.25;;;2.30;;
71148;SDS011;59072;42.144;25.200;2022-09-17T12:01:28;9.32;;;1.50;;
71148;SDS011;59072;42.144;25.200;2022-09-17T12:06:58;8.10;;;1.55;;
71148;SDS011;59072;42.144;25.200;2022-09-17T12:09:35;10.20;;;1.65;;
71148;SDS011;59072;42.144;25.200;2022-09-17T12:12:07;5.25;;;0.90;;
71148;SDS011;59072;42.144;25.200;2022-09-17T12:14:45;5.95;;;0.90;;
71148;SDS011;59072;42.144;25.200;2022-09-17T12:17:16;6.10;;;1.77;;
71148;SDS011;59072;42.144;25.200;2022-09-17T12:19:48;3.88;;;0.82;;
71148;SDS011;59072;42.144;25.200;2022-09-17T12:22:22;4.63;;;0.60;;
71148;SDS011;59072;42.144;25.200;2022-09-17T12:24:50;5.75;;;1.63;;
71148;SDS011;59072;42.144;25.200;2022-09-17T12:30:42;4.05;;;0.70;;
71148;SDS011;59072;42.144;25.200;2022-09-17T12:49:41;3.15;;;0.77;;
71148;SDS011;59072;42.144;25.200;2022-09-17T12:57:33;2.47;;;0.75;;
71148;SDS011;59072;42.144;25.200;2022-09-17T13:00:13;4.80;;;1.58;;
71148;SDS011;59072;42.144;25.200;2022-09-17T13:18:05;14.35;;;9.55;;
71148;SDS011;59072;42.144;25.200;2022-09-17T13:23:27;4.20;;;2.03;;
71148;SDS011;59072;42.144;25.200;2022-09-17T13:25:56;4.20;;;2.45;;
71148;SDS011;59072;42.144;25.200;2022-09-17T13:31:19;5.43;;;1.98;;
71148;SDS011;59072;42.144;25.200;2022-09-17T13:42:01;4.22;;;1.38;;
71148;SDS011;59072;42.144;25.200;2022-09-17T13:44:29;3.97;;;0.95;;
71148;SDS011;59072;42.144;25.200;2022-09-17T13:47:06;4.57;;;1.38;;
71148;SDS011;59072;42.144;25.200;2022-09-17T13:49:54;1.83;;;0.82;;
71148;SDS011;59072;42.144;25.200;2022-09-17T13:52:31;2.33;;;1.40;;
71148;SDS011;59072;42.144;25.200;2022-09-17T13:55:00;5.82;;;1.10;;
71148;SDS011;59072;42.144;25.200;2022-09-17T13:57:26;1.45;;;0.50;;
71148;SDS011;59072;42.144;25.200;2022-09-17T13:59:57;2.42;;;0.70;;
71148;SDS011;59072;42.144;25.200;2022-09-17T14:02:26;4.00;;;1.27;;
71148;SDS011;59072;42.144;25.200;2022-09-17T14:04:53;3.05;;;0.90;;
71148;SDS011;59072;42.144;25.200;2022-09-17T14:23:19;6.88;;;0.98;;
71148;SDS011;59072;42.144;25.200;2022-09-17T14:25:50;6.55;;;1.38;;
71148;SDS011;59072;42.144;25.200;2022-09-17T14:31:17;2.78;;;0.98;;
71148;SDS011;59072;42.144;25.200;2022-09-17T14:33:49;4.00;;;1.00;;
71148;SDS011;59072;42.144;25.200;2022-09-17T14:36:15;4.88;;;1.25;;
71148;SDS011;59072;42.144;25.200;2022-09-17T14:38:45;4.78;;;1.00;;
71148;SDS011;59072;42.144;25.200;2022-09-17T14:41:17;2.78;;;0.60;;
71148;SDS011;59072;42.144;25.200;2022-09-17T14:43:51;5.97;;;0.88;;
71148;SDS011;59072;42.144;25.200;2022-09-17T14:49:14;5.45;;;1.20;;
71148;SDS011;59072;42.144;25.200;2022-09-17T14:51:43;4.97;;;1.00;;
71148;SDS011;59072;42.144;25.200;2022-09-17T14:54:15;4.70;;;1.23;;
71148;SDS011;59072;42.144;25.200;2022-09-17T14:59:53;4.57;;;0.90;;
71148;SDS011;59072;42.144;25.200;2022-09-17T15:02:28;3.25;;;0.80;;
71148;SDS011;59072;42.144;25.200;2022-09-17T15:05:14;3.70;;;1.40;;
71148;SDS011;59072;42.144;25.200;2022-09-17T15:07:45;4.65;;;1.10;;
71148;SDS011;59072;42.144;25.200;2022-09-17T15:10:18;8.52;;;1.02;;
71148;SDS011;59072;42.144;25.200;2022-09-17T15:12:45;5.47;;;1.25;;
71148;SDS011;59072;42.144;25.200;2022-09-17T15:15:17;3.58;;;1.02;;
71148;SDS011;59072;42.144;25.200;2022-09-17T15:17:48;2.60;;;0.90;;
71148;SDS011;59072;42.144;25.200;2022-09-17T15:20:19;4.20;;;1.25;;
71148;SDS011;59072;42.144;25.200;2022-09-17T15:22:48;3.47;;;1.30;;
71148;SDS011;59072;42.144;25.200;2022-09-17T15:25:20;5.63;;;1.33;;
71148;SDS011;59072;42.144;25.200;2022-09-17T15:27:54;3.10;;;1.30;;
71148;SDS011;59072;42.144;25.200;2022-09-17T15:30:23;4.63;;;1.00;;
71148;SDS011;59072;42.144;25.200;2022-09-17T15:32:53;2.80;;;0.95;;
71148;SDS011;59072;42.144;25.200;2022-09-17T15:35:22;6.15;;;1.25;;
71148;SDS011;59072;42.144;25.200;2022-09-17T15:37:55;4.88;;;1.85;;
71148;SDS011;59072;42.144;25.200;2022-09-17T15:40:24;3.85;;;1.50;;
71148;SDS011;59072;42.144;25.200;2022-09-17T15:42:51;6.00;;;1.50;;
71148;SDS011;59072;42.144;25.200;2022-09-17T15:45:26;3.78;;;1.13;;
71148;SDS011;59072;42.144;25.200;2022-09-17T15:47:59;3.65;;;1.17;;
71148;SDS011;59072;42.144;25.200;2022-09-17T15:50:27;5.18;;;1.48;;
71148;SDS011;59072;42.144;25.200;2022-09-17T15:53:10;4.53;;;1.42;;
71148;SDS011;59072;42.144;25.200;2022-09-17T15:55:44;6.93;;;1.25;;
71148;SDS011;59072;42.144;25.200;2022-09-17T16:00:51;8.73;;;1.30;;
71148;SDS011;59072;42.144;25.200;2022-09-17T16:08:42;4.07;;;1.20;;
71148;SDS011;59072;42.144;25.200;2022-09-17T16:11:11;10.07;;;3.53;;
71148;SDS011;59072;42.144;25.200;2022-09-17T16:13:37;10.25;;;2.90;;
71148;SDS011;59072;42.144;25.200;2022-09-17T16:16:03;5.07;;;1.40;;
71148;SDS011;59072;42.144;25.200;2022-09-17T16:18:28;4.85;;;1.02;;
71148;SDS011;59072;42.144;25.200;2022-09-17T16:20:54;4.70;;;1.30;;
71148;SDS011;59072;42.144;25.200;2022-09-17T16:23:19;7.75;;;1.33;;
71148;SDS011;59072;42.144;25.200;2022-09-17T16:25:44;4.68;;;1.73;;
71148;SDS011;59072;42.144;25.200;2022-09-17T16:28:11;6.55;;;2.25;;
71148;SDS011;59072;42.144;25.200;2022-09-17T16:30:39;8.60;;;2.33;;
71148;SDS011;59072;42.144;25.200;2022-09-17T16:33:09;16.40;;;4.05;;
71148;SDS011;59072;42.144;25.200;2022-09-17T16:35:35;12.15;;;3.92;;
71148;SDS011;59072;42.144;25.200;2022-09-17T16:38:02;17.02;;;4.32;;
71148;SDS011;59072;42.144;25.200;2022-09-17T16:40:29;7.45;;;2.65;;
71148;SDS011;59072;42.144;25.200;2022-09-17T16:42:55;10.73;;;2.97;;
71148;SDS011;59072;42.144;25.200;2022-09-17T16:45:24;6.38;;;2.47;;
71148;SDS011;59072;42.144;25.200;2022-09-17T16:47:50;7.50;;;3.03;;
71148;SDS011;59072;42.144;25.200;2022-09-17T16:50:16;7.30;;;2.95;;
71148;SDS011;59072;42.144;25.200;2022-09-17T16:52:42;8.82;;;2.92;;
71148;SDS011;59072;42.144;25.200;2022-09-17T16:55:10;6.53;;;2.60;;
71148;SDS011;59072;42.144;25.200;2022-09-17T16:57:37;7.45;;;2.85;;
71148;SDS011;59072;42.144;25.200;2022-09-17T17:00:04;8.32;;;2.65;;
71148;SDS011;59072;42.144;25.200;2022-09-17T17:02:31;7.72;;;3.47;;
71148;SDS011;59072;42.144;25.200;2022-09-17T17:04:56;10.13;;;3.28;;
71148;SDS011;59072;42.144;25.200;2022-09-17T17:07:22;9.55;;;3.58;;
71148;SDS011;59072;42.144;25.200;2022-09-17T17:09:48;8.70;;;3.05;;
71148;SDS011;59072;42.144;25.200;2022-09-17T17:12:14;16.60;;;5.32;;
71148;SDS011;59072;42.144;25.200;2022-09-17T17:14:39;10.20;;;4.85;;
71148;SDS011;59072;42.144;25.200;2022-09-17T17:17:05;11.13;;;3.63;;
71148;SDS011;59072;42.144;25.200;2022-09-17T17:19:31;9.20;;;3.65;;
71148;SDS011;59072;42.144;25.200;2022-09-17T17:21:57;8.68;;;3.70;;
71148;SDS011;59072;42.144;25.200;2022-09-17T17:24:22;9.73;;;3.33;;
71148;SDS011;59072;42.144;25.200;2022-09-17T17:26:49;12.25;;;5.10;;
71148;SDS011;59072;42.144;25.200;2022-09-17T17:29:14;10.98;;;5.88;;
71148;SDS011;59072;42.144;25.200;2022-09-17T17:31:40;9.77;;;3.20;;
71148;SDS011;59072;42.144;25.200;2022-09-17T17:34:06;7.60;;;2.03;;
71148;SDS011;59072;42.144;25.200;2022-09-17T17:36:31;7.03;;;1.98;;
71148;SDS011;59072;42.144;25.200;2022-09-17T17:38:57;5.70;;;2.30;;
71148;SDS011;59072;42.144;25.200;2022-09-17T17:41:23;5.43;;;1.95;;
71148;SDS011;59072;42.144;25.200;2022-09-17T17:43:51;5.22;;;1.60;;
71148;SDS011;59072;42.144;25.200;2022-09-17T17:46:17;19.60;;;11.38;;
71148;SDS011;59072;42.144;25.200;2022-09-17T17:48:43;35.60;;;21.92;;
71148;SDS011;59072;42.144;25.200;2022-09-17T17:51:09;13.48;;;5.03;;
71148;SDS011;59072;42.144;25.200;2022-09-17T17:53:34;9.73;;;2.30;;
71148;SDS011;59072;42.144;25.200;2022-09-17T17:56:01;7.57;;;2.75;;
71148;SDS011;59072;42.144;25.200;2022-09-17T17:58:29;6.18;;;2.15;;
71148;SDS011;59072;42.144;25.200;2022-09-17T18:00:55;8.32;;;2.00;;
71148;SDS011;59072;42.144;25.200;2022-09-17T18:03:21;10.40;;;3.08;;
71148;SDS011;59072;42.144;25.200;2022-09-17T18:05:58;9.48;;;2.80;;
71148;SDS011;59072;42.144;25.200;2022-09-17T18:08:24;6.93;;;2.95;;
71148;SDS011;59072;42.144;25.200;2022-09-17T18:10:54;10.77;;;3.35;;
71148;SDS011;59072;42.144;25.200;2022-09-17T18:13:21;7.20;;;2.63;;
71148;SDS011;59072;42.144;25.200;2022-09-17T18:15:54;11.02;;;2.75;;
71148;SDS011;59072;42.144;25.200;2022-09-17T18:18:21;11.25;;;3.05;;
71148;SDS011;59072;42.144;25.200;2022-09-17T18:20:48;14.32;;;3.08;;
71148;SDS011;59072;42.144;25.200;2022-09-17T18:23:15;9.90;;;2.47;;
71148;SDS011;59072;42.144;25.200;2022-09-17T18:25:41;11.82;;;2.20;;
71148;SDS011;59072;42.144;25.200;2022-09-17T18:28:07;7.30;;;2.22;;